Accueil
METAR-TAF:

METAR-TAF

Aéroports :

Aéroport de Reus

Reus, Espagne

latitude: 41-09N, longitude: 001-10E, altitude: 71 m

Observation

Le bulletin a été fait il y a 36 minutes, à 22:30 UTC
Vent 2 kt de direction variable
Température 9°C
Humidité 87%
Pression 1017 hPa

METAR: LERS 282230Z AUTO VRB02KT //// R25///// // NCD 09/07 Q1017

Heure: 00:06 (23:06 UTC)

Prévision

Le bulletin a été fait il y a 3 heures et 6 minutes, à 20:00 UTC
Prévision valable du 28 à 21 UTC au 29 à 21 UTC
Vent 4 kt de direction variable
Visibilité 10 km ou plus
Nuages épars à une hauteur de 3000 ft
Evoluant progressivement
du 29 à 07 UTC au 29 à 10 UTC
Vent 12 kt de ouest
Evoluant progressivement
du 29 à 18 UTC au 29 à 21 UTC
Vent 4 kt de direction variable

TAF: LERS 282000Z 2821/2921 VRB04KT 9999 SCT030 TX21/2913Z TN06/2906Z BECMG 2907/2910 28012KT BECMG 2918/2921 VRB04KT

Observations et prévisions météorologiques de plus de 4000 aéroports (messages METAR et TAF).

Les stations disponibles sont représentées par des disques jaunes et rouges sur la carte.

Passer la souris dessus pour voir le nom de la station.

Cliquer dessus pour voir les observations et prévisions météorologiques.

Pour changer de carte: cliquez sur les boutons verts avec une croix noire pour zoomer, sur le bouton vert avec un tiret pour effectuer un zoom arrière, ou sur les flèches vertes pour les cartes adjacentes.


METAR-TAF: